Pulaski, Wisconsin
Current Conditions -  °F | °C
As of 11:03 AM on Sunday 23 Nov 2014 (Local Time) from KGRB Reporting Station
Haze Haze  
Wind Chill: 43°   Ceiling: 600
Heat Index: 48°   Visibility: 2mi
Dew Point: 46°   Wind: 10mph
Humidity: 93%   Direction: 170°S
Pressure: 29.6"   Gusts: NA
Location:  44.67°N, 88.24°W
Report Text: KGRB 231703Z 17009KT 2SM BR OVC006 09/08 A2960 RMK AO2 T00890078
Loading
Personal Weather Stations






























Interactive Weather Map New forecast layout! Learn more

10-Day Weather Forecast

Advertisements
Track Severe Weather on mobile